PSD weather

Port Said Airport
Port Said, Sharqia Governorate, Egypt

Public forecast

Using degrees Celsius for public forecast. Weather courtesy of forecast.io.

METAR (pilot weather report)

Retrieved 2019/03/26 09:00 UTC (59 minutes ago):

HEPS 260900Z 24016KT 9999 SCT025 SCT030 18/09 Q1014 NOSIG

TAF (pilot weather forecast)

Forecast is more than 12 hours old.

Retrieved 2019/03/25 12:17 UTC (22 hours ago):

TAF HEPS 251100Z 2512/2618 35010G20KT 9999 SCT020 TEMPO 2512/2515 4000 RA BKN025